Amasa, Michigan
Current Conditions -  °F | °C
As of 3:54 AM on Wednesday 26 Nov 2014 (Local Time) from KIMT Reporting Station
Overcast Overcast  
Wind Chill:   Ceiling: 6000
Heat Index:   Visibility: 10mi
Dew Point: -5°   Wind: 3mph
Humidity: 79%   Direction: 300°WNW
Pressure: 30.1"   Gusts: NA
Location:  46.23°N, 88.45°W
Report Text: KIMT 260954Z AUTO 30003KT 10SM FEW001 OVC060 M18/M21 A3010 RMK AO2 SLP221 T11781206
Loading
Personal Weather Stations






























Interactive Weather Map New forecast layout! Learn more

10-Day Weather Forecast

Advertisements
Track Severe Weather on mobile